»·PEaware :: N623CK KBIL-3U0

N623CK :: KBIL-3U0

FLIGHT INFORMATION

Flight Status: Arrived
Operator: Privately registered:
United States
More flights under this callsign
Pilot: Charles S. (11412)
Aircraft: MITSUBISHI MU-2 MARQUISE
(MU2)
More flights by this aircraft type
Origin: KBIL Billings Logan Intl
United States
Destination: 3U0 Murphy Hot Springs
United States
More flights between these airports :: More routes between these airports
Route: BIL5 DBS TWF
File this flight plan on PilotEdge
Remarks:
Altitude:
(Current/Filed)
22,000ft
Speed:
(Current/Filed)
230kts
Departed: 29-Mar-20 06:39 PM
Arrived: 29-Mar-20 08:15 PM
Distance/Time
Traveled:
371nm/1:36
Distance/Time
To Go:
Arrived

Flight Plot

Page will automatically refresh every two minutes.

Flight plan parsing failed; only flown route is shown


Map Options




Map Legend


Flown Route
Filed Route
Departure Airport
Arrival Airport
Navaid (VOR, NDB)
Fix

Horizontal Profiles

Position Reports

Time Latitude Longitude Heading Altitude Ground
Speed
29-Mar-20 18:21 45.802104 -108.528978 270 3655ft 0kts
29-Mar-20 18:22 45.802104 -108.528978 270 3655ft 0kts
29-Mar-20 18:23 45.802104 -108.528978 270 3655ft 0kts
29-Mar-20 18:24 45.802104 -108.528978 270 3655ft 0kts
29-Mar-20 18:25 45.802104 -108.528978 270 3655ft 0kts
29-Mar-20 18:26 45.802104 -108.528978 270 3655ft 0kts
29-Mar-20 18:27 45.802104 -108.528978 270 3655ft 0kts
29-Mar-20 18:28 45.802104 -108.528978 270 3655ft 0kts
29-Mar-20 18:29 45.802104 -108.528978 270 3655ft 0kts
29-Mar-20 18:30 45.802104 -108.528978 270 3655ft 0kts
29-Mar-20 18:31 45.802104 -108.528978 270 3655ft 0kts
29-Mar-20 18:32 45.802104 -108.528978 270 3655ft 0kts
29-Mar-20 18:33 45.802858 -108.529731 352 3655ft 10kts
29-Mar-20 18:34 45.803811 -108.530088 3 3655ft 0kts
29-Mar-20 18:36 45.804275 -108.528844 106 3655ft 9kts
29-Mar-20 18:37 45.802407 -108.522141 111 3655ft 13kts
29-Mar-20 18:38 45.802053 -108.516763 331 3655ft 13kts
29-Mar-20 18:39 45.811427 -108.549904 292 3995ft 160kts
29-Mar-20 18:40 45.831046 -108.616049 297 5437ft 191kts
29-Mar-20 18:41 45.847807 -108.690932 245 6901ft 205kts
29-Mar-20 18:42 45.817571 -108.759246 236 8669ft 200kts
29-Mar-20 18:43 45.787913 -108.822312 235 10386ft 191kts
29-Mar-20 18:44 45.757506 -108.886604 235 11920ft 191kts
29-Mar-20 18:45 45.727992 -108.948848 235 13387ft 186kts
29-Mar-20 18:46 45.699078 -109.009667 235 14689ft 186kts
29-Mar-20 18:47 45.668574 -109.073684 236 15602ft 197kts
29-Mar-20 18:48 45.637659 -109.138495 236 16619ft 197kts
29-Mar-20 18:49 45.607000 -109.202598 237 17570ft 196kts
29-Mar-20 18:50 45.576150 -109.267003 237 18394ft 197kts
29-Mar-20 18:51 45.545021 -109.331798 237 19151ft 199kts
29-Mar-20 18:52 45.513656 -109.396931 237 19850ft 200kts
29-Mar-20 18:53 45.482230 -109.462159 237 20573ft 197kts
29-Mar-20 18:53 45.456228 -109.515810 236 21117ft 198kts
29-Mar-20 18:55 45.419731 -109.591048 237 21725ft 198kts
29-Mar-20 18:56 45.388250 -109.655818 236 21941ft 210kts
29-Mar-20 18:57 45.353459 -109.727221 236 21937ft 228kts
29-Mar-20 18:57 45.322588 -109.790429 236 21935ft 237kts
29-Mar-20 18:59 45.277820 -109.881865 236 21933ft 244kts
29-Mar-20 18:59 45.245195 -109.948285 236 21932ft 247kts
29-Mar-20 19:00 45.205711 -110.028526 236 21932ft 249kts
29-Mar-20 19:01 45.165967 -110.109045 236 21931ft 250kts
29-Mar-20 19:02 45.126116 -110.189558 236 21931ft 250kts
29-Mar-20 19:03 45.086062 -110.270246 236 21931ft 250kts
29-Mar-20 19:04 45.046012 -110.350707 236 21930ft 251kts
29-Mar-20 19:05 45.005610 -110.431639 235 21936ft 252kts
29-Mar-20 19:06 44.965062 -110.512668 234 21966ft 253kts
29-Mar-20 19:07 44.924359 -110.593707 234 22004ft 255kts
29-Mar-20 19:08 44.883270 -110.675314 233 22025ft 256kts
29-Mar-20 19:09 44.841905 -110.757243 233 22026ft 258kts
29-Mar-20 19:10 44.800245 -110.839519 233 22025ft 259kts
29-Mar-20 19:11 44.758201 -110.922311 233 22025ft 260kts
29-Mar-20 19:12 44.716177 -111.004831 233 22025ft 259kts
29-Mar-20 19:13 44.674309 -111.086810 234 22024ft 258kts
29-Mar-20 19:14 44.632372 -111.168697 234 22023ft 257kts
29-Mar-20 19:15 44.590648 -111.249934 234 22023ft 256kts
29-Mar-20 19:16 44.548910 -111.330970 234 22023ft 256kts
29-Mar-20 19:17 44.507270 -111.411588 234 22023ft 256kts
29-Mar-20 19:18 44.465404 -111.492421 234 22023ft 256kts
29-Mar-20 19:19 44.424012 -111.572112 234 22022ft 256kts
29-Mar-20 19:20 44.382147 -111.652492 233 22022ft 255kts
29-Mar-20 19:21 44.340196 -111.732815 233 22024ft 256kts
29-Mar-20 19:22 44.298239 -111.812924 233 22024ft 256kts
29-Mar-20 19:23 44.256123 -111.893122 233 22023ft 256kts
29-Mar-20 19:24 44.213921 -111.973253 233 22023ft 256kts
29-Mar-20 19:25 44.171805 -112.053007 233 22023ft 256kts
29-Mar-20 19:26 44.129658 -112.132601 233 22022ft 256kts
29-Mar-20 19:27 44.087102 -112.211099 228 22022ft 256kts
29-Mar-20 19:28 44.040250 -112.281067 227 22022ft 256kts
29-Mar-20 19:29 43.993977 -112.349150 226 22024ft 255kts
29-Mar-20 19:30 43.947498 -112.417338 227 22036ft 255kts
29-Mar-20 19:31 43.899579 -112.487469 227 22045ft 255kts
29-Mar-20 19:32 43.850743 -112.558799 227 22051ft 255kts
29-Mar-20 19:33 43.801554 -112.630375 227 22051ft 256kts
29-Mar-20 19:34 43.752406 -112.701756 226 22053ft 256kts
29-Mar-20 19:35 43.703126 -112.773149 226 22052ft 257kts
29-Mar-20 19:36 43.653816 -112.844396 226 22050ft 257kts
29-Mar-20 19:37 43.604450 -112.915549 226 22045ft 257kts
29-Mar-20 19:38 43.554798 -112.986930 226 22043ft 258kts
29-Mar-20 19:39 43.505180 -113.058083 226 22042ft 258kts
29-Mar-20 19:40 43.455225 -113.129541 226 22042ft 258kts
29-Mar-20 19:41 43.405563 -113.200395 226 22041ft 258kts
29-Mar-20 19:42 43.355571 -113.271543 226 22041ft 258kts
29-Mar-20 19:43 43.305807 -113.342143 226 22044ft 258kts
29-Mar-20 19:44 43.255847 -113.412927 226 22036ft 258kts
29-Mar-20 19:45 43.205793 -113.483630 226 22033ft 258kts
29-Mar-20 19:46 43.155753 -113.554134 226 22031ft 258kts
29-Mar-20 19:47 43.105805 -113.624229 226 22031ft 258kts
29-Mar-20 19:48 43.055802 -113.694435 225 22033ft 258kts
29-Mar-20 19:49 43.006061 -113.763961 226 22032ft 259kts
29-Mar-20 19:50 42.955714 -113.834190 226 22032ft 259kts
29-Mar-20 19:51 42.905191 -113.904495 227 22033ft 260kts
29-Mar-20 19:52 42.854649 -113.974705 226 22035ft 259kts
29-Mar-20 19:53 42.804297 -114.044383 227 22034ft 260kts
29-Mar-20 19:54 42.753309 -114.114815 227 22033ft 261kts
29-Mar-20 19:55 42.702314 -114.185134 227 22032ft 261kts
29-Mar-20 19:56 42.646946 -114.261121 226 20491ft 303kts
29-Mar-20 19:57 42.587667 -114.342368 226 18750ft 303kts
29-Mar-20 19:58 42.530433 -114.420579 226 17067ft 303kts
29-Mar-20 19:59 42.473311 -114.502355 234 15339ft 302kts
29-Mar-20 20:00 42.427486 -114.587664 235 14001ft 247kts
29-Mar-20 20:01 42.391734 -114.654532 234 14011ft 220kts
29-Mar-20 20:02 42.357335 -114.718417 234 13191ft 236kts
29-Mar-20 20:03 42.318908 -114.789928 234 11820ft 231kts
29-Mar-20 20:04 42.281666 -114.858956 234 10445ft 222kts
29-Mar-20 20:05 42.245808 -114.925294 233 9978ft 220kts
29-Mar-20 20:06 42.210011 -114.991392 234 9975ft 213kts
29-Mar-20 20:07 42.173755 -115.058159 234 9389ft 229kts
29-Mar-20 20:08 42.135350 -115.128754 233 8824ft 235kts
29-Mar-20 20:09 42.099040 -115.201542 269 8278ft 220kts
29-Mar-20 20:10 42.093652 -115.207077 228 8183ft 211kts
29-Mar-20 20:11 42.062886 -115.268601 251 7632ft 184kts
29-Mar-20 20:12 42.060641 -115.292249 191 6658ft 163kts
29-Mar-20 20:13 42.037897 -115.327123 206 5925ft 112kts
29-Mar-20 20:14 42.022474 -115.337002 116 5803ft 0kts

Navigation Log

Ident Type
Flight plan parsing failed, navigation log unavailable